createdAt,value
2023-02-03T00:01:25.565Z,99145.31
2023-02-03T00:04:00.064Z,99140.84
2023-02-03T00:06:33.839Z,99141.47
2023-02-03T00:09:06.997Z,99144.28
2023-02-03T00:11:40.055Z,99127.56
2023-02-03T00:14:13.092Z,99122.78
2023-02-03T00:16:46.217Z,99127.56
2023-02-03T00:19:20.810Z,99130.72
2023-02-03T00:21:53.873Z,99128.47
2023-02-03T00:24:27.253Z,99126.22
2023-02-03T00:27:00.258Z,99127.22
2023-02-03T00:29:33.408Z,99127.56
2023-02-03T00:32:06.839Z,99118.59
2023-02-03T00:34:41.291Z,99121.25
2023-02-03T00:37:14.856Z,99126.63
2023-02-03T00:39:47.863Z,99134.84
2023-02-03T00:42:21.010Z,99130.53
2023-02-03T00:44:54.005Z,99134.41
2023-02-03T00:47:27.073Z,99141.72
2023-02-03T00:50:01.587Z,99160.97
2023-02-03T00:52:34.728Z,99154.72
2023-02-03T00:55:09.703Z,99151.41
2023-02-03T00:57:42.828Z,99149.34
2023-02-03T01:00:17.172Z,99147.88
2023-02-03T01:02:50.254Z,99149.03
2023-02-03T01:05:25.155Z,99155.44
2023-02-03T01:07:58.238Z,99152.59
2023-02-03T01:10:31.795Z,99163.66
2023-02-03T01:13:04.872Z,99151.72
2023-02-03T01:15:37.965Z,99145.59
2023-02-03T01:18:10.985Z,99140.53
2023-02-03T01:20:45.787Z,99106.78
2023-02-03T01:23:18.958Z,99096.13
2023-02-03T01:25:51.992Z,99098.41
2023-02-03T01:28:25.023Z,99095.88
2023-02-03T01:30:58.173Z,99101.84
2023-02-03T01:33:31.767Z,99118.13
2023-02-03T01:36:06.415Z,99128.75
2023-02-03T01:38:40.811Z,99119.63
2023-02-03T01:41:16.810Z,99112.00
2023-02-03T01:43:52.369Z,99104.22
2023-02-03T01:46:32.791Z,99098.41
2023-02-03T01:49:09.786Z,99100.38
2023-02-03T01:51:46.790Z,99093.34
2023-02-03T01:54:26.846Z,99093.06
2023-02-03T01:57:04.542Z,99095.16
2023-02-03T01:59:37.970Z,99089.53
2023-02-03T02:02:12.152Z,99101.84
2023-02-03T02:04:56.280Z,99103.31
2023-02-03T02:07:30.754Z,99090.34
2023-02-03T02:10:04.577Z,99076.91
2023-02-03T02:12:37.699Z,99076.91
2023-02-03T02:15:11.748Z,99080.63
2023-02-03T02:18:07.592Z,99069.31
2023-02-03T02:21:14.581Z,99062.00
2023-02-03T02:24:27.464Z,99050.47
2023-02-03T02:27:26.438Z,99038.69
2023-02-03T02:30:52.265Z,99049.34
2023-02-03T02:33:38.230Z,99036.78
2023-02-03T02:36:27.077Z,99037.78
2023-02-03T02:39:09.422Z,99022.66
2023-02-03T02:41:48.021Z,99016.38
2023-02-03T02:44:27.159Z,99016.09
2023-02-03T02:47:05.818Z,99003.25
2023-02-03T02:49:47.009Z,99004.75
2023-02-03T02:52:22.828Z,99007.59
2023-02-03T02:55:02.485Z,99013.16
2023-02-03T02:57:37.306Z,99020.56
2023-02-03T03:00:12.234Z,99044.09
2023-02-03T03:02:45.251Z,99029.84
2023-02-03T03:05:21.177Z,99029.44
2023-02-03T03:08:02.169Z,99024.75
2023-02-03T03:10:37.800Z,99022.56
2023-02-03T03:13:16.158Z,99024.47
2023-02-03T03:15:51.953Z,99004.69
2023-02-03T03:18:30.028Z,99011.28
2023-02-03T03:21:07.823Z,99016.09
2023-02-03T03:23:43.109Z,99010.75
2023-02-03T03:26:22.975Z,99011.75
2023-02-03T03:29:04.982Z,99007.28
2023-02-03T03:31:38.173Z,99015.63
2023-02-03T03:34:13.514Z,99019.66
2023-02-03T03:36:54.552Z,99038.19
2023-02-03T03:39:34.714Z,99032.63
2023-02-03T03:42:13.904Z,99028.31
2023-02-03T03:44:54.068Z,99028.88
2023-02-03T03:47:31.974Z,99032.06
2023-02-03T03:50:09.462Z,99035.19
2023-02-03T03:52:47.097Z,99054.25
2023-02-03T03:55:22.001Z,99060.22
2023-02-03T03:57:59.925Z,99064.00
2023-02-03T04:00:37.157Z,99064.69
2023-02-03T04:03:16.571Z,99067.41
2023-02-03T04:05:50.164Z,99082.06
2023-02-03T04:08:24.707Z,99079.38
2023-02-03T04:10:57.780Z,99074.44
2023-02-03T04:13:30.797Z,99074.72
2023-02-03T04:16:03.935Z,99081.47
2023-02-03T04:18:36.999Z,99078.16
2023-02-03T04:21:10.013Z,99065.63
2023-02-03T04:23:44.387Z,99061.16
2023-02-03T04:26:18.130Z,99059.63
2023-02-03T04:28:51.386Z,99061.44
2023-02-03T04:31:24.505Z,99066.66
2023-02-03T04:33:57.619Z,99053.56
2023-02-03T04:36:30.641Z,99047.44
2023-02-03T04:39:05.416Z,99037.25
2023-02-03T04:41:38.433Z,99036.31
2023-02-03T04:44:11.573Z,99042.88
2023-02-03T04:46:44.713Z,99042.13
2023-02-03T04:49:18.157Z,99052.19
2023-02-03T04:51:51.353Z,99053.13
2023-02-03T04:54:25.879Z,99060.19
2023-02-03T04:56:58.993Z,99061.56
2023-02-03T04:59:32.247Z,99061.25
2023-02-03T05:02:05.983Z,99046.91
2023-02-03T05:04:39.020Z,99038.38
2023-02-03T05:07:12.061Z,99046.59
2023-02-03T05:09:47.478Z,99036.59
2023-02-03T05:12:20.541Z,99040.03
2023-02-03T05:14:53.560Z,99044.22
2023-02-03T05:17:26.714Z,99063.47
2023-02-03T05:19:59.739Z,99077.13
2023-02-03T05:22:32.812Z,99082.78
2023-02-03T05:25:08.971Z,99057.09
2023-02-03T05:27:42.850Z,99052.47
2023-02-03T05:30:15.959Z,99054.13
2023-02-03T05:32:50.357Z,99058.91
2023-02-03T05:35:23.381Z,99055.00
2023-02-03T05:37:56.451Z,99062.91
2023-02-03T05:40:48.843Z,99062.31
2023-02-03T05:43:22.026Z,99068.16
2023-02-03T05:45:55.213Z,99071.41
2023-02-03T05:48:28.428Z,99066.66
2023-02-03T05:51:01.683Z,99060.09
2023-02-03T05:53:34.832Z,99071.41
2023-02-03T05:56:09.730Z,99061.44
2023-02-03T05:58:42.817Z,99048.75
2023-02-03T06:01:15.872Z,99050.22
2023-02-03T06:03:49.731Z,99027.25
2023-02-03T06:06:22.918Z,99048.91
2023-02-03T06:08:57.100Z,99055.28
2023-02-03T06:11:32.454Z,99050.69
2023-02-03T06:14:05.807Z,99059.34
2023-02-03T06:16:38.897Z,99051.13
2023-02-03T06:19:12.648Z,99056.81
2023-02-03T06:21:46.699Z,99057.44
2023-02-03T06:24:20.138Z,99056.22
2023-02-03T06:26:54.574Z,99061.19
2023-02-03T06:29:27.646Z,99076.09
2023-02-03T06:32:00.964Z,99062.50
2023-02-03T06:34:34.450Z,99049.69
2023-02-03T06:37:07.885Z,99044.13
2023-02-03T06:39:40.895Z,99048.31
2023-02-03T06:42:15.347Z,99050.84
2023-02-03T06:44:48.367Z,99035.91
2023-02-03T06:47:21.461Z,99030.25
2023-02-03T06:49:54.644Z,99041.31
2023-02-03T06:52:27.782Z,99030.88
2023-02-03T06:55:00.821Z,99015.06
2023-02-03T06:57:35.342Z,99019.22
2023-02-03T07:00:11.192Z,99010.25
2023-02-03T07:02:46.334Z,99014.75
2023-02-03T07:05:19.630Z,99005.38
2023-02-03T07:07:53.505Z,99000.91
2023-02-03T07:10:27.096Z,99033.13
2023-02-03T07:13:05.551Z,99030.31
2023-02-03T07:15:39.049Z,99010.31
2023-02-03T07:18:15.014Z,99006.09
2023-02-03T07:20:51.256Z,99000.31
2023-02-03T07:23:24.372Z,99007.19
2023-02-03T07:26:00.589Z,98998.09
2023-02-03T07:28:35.904Z,99006.75
2023-02-03T07:31:10.507Z,99005.69
2023-02-03T07:33:43.731Z,99006.75
2023-02-03T07:36:16.911Z,99004.94
2023-02-03T07:38:50.106Z,99011.50
2023-02-03T07:41:23.557Z,99020.03
2023-02-03T07:43:57.958Z,99024.63
2023-02-03T07:46:31.181Z,99024.19
2023-02-03T07:49:05.852Z,99029.88
2023-02-03T07:51:38.963Z,99044.63
2023-02-03T07:54:12.056Z,99057.59
2023-02-03T07:56:45.141Z,99056.13
2023-02-03T07:59:19.530Z,99073.56
2023-02-03T08:01:56.262Z,99075.63
2023-02-03T08:04:29.677Z,99086.38
2023-02-03T08:07:02.709Z,99084.91
2023-02-03T08:09:35.754Z,99094.16
2023-02-03T08:12:08.949Z,99089.69
2023-02-03T08:14:43.407Z,99085.22
2023-02-03T08:17:16.462Z,99091.16
2023-02-03T08:19:49.491Z,99079.03
2023-02-03T08:22:22.472Z,99060.38
2023-02-03T08:24:55.470Z,99065.19
2023-02-03T08:27:28.618Z,99067.72
2023-02-03T08:30:03.226Z,99067.59
2023-02-03T08:32:36.314Z,99073.38
2023-02-03T08:35:10.157Z,99079.50
2023-02-03T08:37:43.514Z,99054.28
2023-02-03T08:40:16.722Z,99074.41
2023-02-03T08:42:50.093Z,99070.69
2023-02-03T08:45:24.496Z,99087.88
2023-02-03T08:47:58.244Z,99094.72
2023-02-03T08:50:31.694Z,99093.53
2023-02-03T08:53:05.323Z,99082.22
2023-02-03T08:55:40.968Z,99077.25
2023-02-03T08:58:14.021Z,99070.84
2023-02-03T09:00:50.096Z,99069.34
2023-02-03T09:03:23.403Z,99083.50
2023-02-03T09:05:57.279Z,99094.59
2023-02-03T09:08:30.743Z,99077.72
2023-02-03T09:11:04.190Z,99072.66
2023-02-03T09:13:37.669Z,99072.63
2023-02-03T09:16:12.288Z,99064.72
2023-02-03T09:18:46.069Z,99069.63
2023-02-03T09:21:32.469Z,99055.47
2023-02-03T09:24:13.018Z,99062.31
2023-02-03T09:26:46.636Z,99064.84
2023-02-03T09:29:21.308Z,99067.66
2023-02-03T09:31:55.896Z,99063.78
2023-02-03T09:34:29.060Z,99076.13
2023-02-03T09:37:02.255Z,99081.22
2023-02-03T09:39:35.576Z,99065.13
2023-02-03T09:42:38.030Z,99071.38
2023-02-03T09:45:19.475Z,99076.13
2023-02-03T09:47:56.158Z,99055.84
2023-02-03T09:50:33.406Z,99058.59
2023-02-03T09:53:17.846Z,99060.47
2023-02-03T09:55:51.569Z,99050.09
2023-02-03T09:58:25.140Z,99059.09
2023-02-03T10:01:01.226Z,99047.13
2023-02-03T10:03:42.963Z,99049.78
2023-02-03T10:06:28.067Z,99044.38
2023-02-03T10:09:30.075Z,99041.66
2023-02-03T10:12:23.408Z,99034.75
2023-02-03T10:15:22.583Z,99052.38
2023-02-03T10:17:58.588Z,99048.19
2023-02-03T10:20:40.475Z,99057.56
2023-02-03T10:23:18.406Z,99070.28
2023-02-03T10:25:57.300Z,99067.09
2023-02-03T10:28:34.027Z,99057.84
2023-02-03T10:31:19.840Z,99065.47
2023-02-03T10:34:01.792Z,99082.78
2023-02-03T10:36:56.955Z,99060.13
2023-02-03T10:39:34.661Z,99057.09
2023-02-03T10:42:09.674Z,99053.78
2023-02-03T10:44:45.277Z,99048.97
2023-02-03T10:47:25.998Z,99049.31
2023-02-03T10:50:00.297Z,99041.84
2023-02-03T10:52:36.973Z,99026.88
2023-02-03T10:55:31.551Z,99022.63
2023-02-03T10:58:17.396Z,99045.66
2023-02-03T11:00:57.664Z,99050.84
2023-02-03T11:03:32.025Z,99041.44
2023-02-03T11:06:09.446Z,99027.97
2023-02-03T11:08:47.271Z,99014.53
2023-02-03T11:11:26.906Z,99011.22
2023-02-03T11:14:16.444Z,99019.50
2023-02-03T11:16:49.497Z,99013.59
2023-02-03T11:19:23.847Z,99004.25
2023-02-03T11:21:57.068Z,98986.38
2023-02-03T11:24:34.351Z,98987.94
2023-02-03T11:27:13.087Z,98987.75
2023-02-03T11:29:50.256Z,98993.53
2023-02-03T11:32:36.000Z,98989.53
2023-02-03T11:35:19.203Z,98998.47
2023-02-03T11:41:06.054Z,99007.16
2023-02-03T11:43:39.147Z,99002.59
2023-02-03T11:46:12.807Z,98995.69
2023-02-03T11:49:03.112Z,98987.59
2023-02-03T11:51:47.124Z,98970.25
2023-02-03T11:54:29.114Z,98970.78
2023-02-03T11:57:30.437Z,98969.53
2023-02-03T12:00:21.498Z,98974.47
2023-02-03T12:03:28.168Z,98969.47
2023-02-03T12:06:16.436Z,98975.59
2023-02-03T12:09:08.500Z,98968.22
2023-02-03T12:12:05.889Z,98967.69
2023-02-03T12:14:54.685Z,98973.78
2023-02-03T12:18:07.558Z,98974.81
2023-02-03T12:20:58.781Z,98992.50
2023-02-03T12:23:44.517Z,98967.00
2023-02-03T12:26:24.955Z,98966.56
2023-02-03T12:29:05.021Z,98959.28
2023-02-03T12:31:45.708Z,98945.19
2023-02-03T12:34:26.131Z,98933.88
2023-02-03T12:37:05.940Z,98930.19
2023-02-03T12:39:45.634Z,98921.00
2023-02-03T12:42:25.492Z,98907.66
2023-02-03T12:45:03.399Z,98904.34
2023-02-03T12:47:43.857Z,98901.44
2023-02-03T12:50:21.652Z,98904.50
2023-02-03T12:53:00.736Z,98900.38
2023-02-03T12:55:37.644Z,98897.59
2023-02-03T12:58:19.791Z,98883.19
2023-02-03T13:00:58.410Z,98881.63
2023-02-03T13:03:42.395Z,98872.25
2023-02-03T13:06:23.595Z,98875.66
2023-02-03T13:09:05.101Z,98888.78
2023-02-03T13:11:45.182Z,98883.56
2023-02-03T13:14:25.067Z,98900.38
2023-02-03T13:17:05.165Z,98890.56
2023-02-03T13:19:46.601Z,98881.44
2023-02-03T13:22:23.904Z,98871.25
2023-02-03T13:25:03.214Z,98872.34
2023-02-03T13:27:51.173Z,98855.84
2023-02-03T13:30:45.347Z,98871.22
2023-02-03T13:33:57.021Z,98862.06
2023-02-03T13:37:05.887Z,98852.00
2023-02-03T13:39:59.172Z,98841.47
2023-02-03T13:42:34.216Z,98829.59
2023-02-03T13:45:15.812Z,98831.31
2023-02-03T13:47:53.696Z,98820.28
2023-02-03T13:50:30.214Z,98816.72
2023-02-03T13:53:08.240Z,98816.22
2023-02-03T13:55:44.902Z,98819.75
2023-02-03T13:58:24.516Z,98834.91
2023-02-03T14:01:05.967Z,98852.59
2023-02-03T14:03:45.482Z,98843.88
2023-02-03T14:07:01.855Z,98851.75
2023-02-03T14:09:47.826Z,98853.22
2023-02-03T14:12:37.337Z,98860.47
2023-02-03T14:15:33.862Z,98856.09
2023-02-03T14:18:44.836Z,98850.41
2023-02-03T14:21:21.083Z,98850.81
2023-02-03T14:24:03.377Z,98852.06
2023-02-03T14:26:41.357Z,98842.88
2023-02-03T14:29:27.873Z,98852.31
2023-02-03T14:32:03.523Z,98856.53
2023-02-03T14:34:41.893Z,98843.19
2023-02-03T14:37:22.754Z,98842.47
2023-02-03T14:40:26.681Z,98840.03
2023-02-03T14:43:34.783Z,98845.38
2023-02-03T14:46:36.624Z,98858.59
2023-02-03T14:49:38.377Z,98850.56
2023-02-03T14:52:28.003Z,98858.47
2023-02-03T14:55:26.090Z,98847.50
2023-02-03T14:58:03.593Z,98856.94
2023-02-03T15:00:37.633Z,98874.91
2023-02-03T15:03:31.251Z,98867.13
2023-02-03T15:06:06.699Z,98856.94
2023-02-03T15:08:47.028Z,98848.31
2023-02-03T15:11:45.384Z,98844.25
2023-02-03T15:14:26.243Z,98853.41
2023-02-03T15:17:02.009Z,98863.97
2023-02-03T15:19:39.079Z,98872.38
2023-02-03T15:22:23.043Z,98868.03
2023-02-03T15:25:00.392Z,98870.22
2023-02-03T15:27:34.326Z,98871.63
2023-02-03T15:30:18.454Z,98868.69
2023-02-03T15:33:01.279Z,98861.94
2023-02-03T15:35:36.720Z,98867.94
2023-02-03T15:38:14.840Z,98868.69
2023-02-03T15:40:53.375Z,98881.41
2023-02-03T15:43:33.439Z,98892.63
2023-02-03T15:46:13.150Z,98890.31
2023-02-03T15:48:52.275Z,98904.03
2023-02-03T15:51:33.082Z,98907.22
2023-02-03T15:54:14.136Z,98903.44
2023-02-03T15:56:56.437Z,98918.28
2023-02-03T15:59:34.636Z,98906.81
2023-02-03T16:02:17.832Z,98891.16
2023-02-03T16:04:51.704Z,98896.28
2023-02-03T16:07:29.627Z,98897.41
2023-02-03T16:10:02.653Z,98889.78
2023-02-03T16:12:37.567Z,98899.03
2023-02-03T16:15:24.093Z,98904.13
2023-02-03T16:17:58.404Z,98903.22
2023-02-03T16:20:33.347Z,98900.94
2023-02-03T16:23:20.280Z,98899.59
2023-02-03T16:26:19.483Z,98892.81
2023-02-03T16:29:33.629Z,98896.84
2023-02-03T16:32:37.737Z,98891.34
2023-02-03T16:35:29.322Z,98893.38
2023-02-03T16:38:26.020Z,98897.84
2023-02-03T16:41:16.550Z,98906.88
2023-02-03T16:44:07.228Z,98912.06
2023-02-03T16:46:59.454Z,98894.50
2023-02-03T16:49:50.142Z,98897.31
2023-02-03T16:52:23.168Z,98898.28
2023-02-03T16:54:56.286Z,98894.19
2023-02-03T16:57:29.471Z,98912.13
2023-02-03T17:00:02.590Z,98904.13
2023-02-03T17:02:37.084Z,98918.53
2023-02-03T17:05:10.168Z,98929.06
2023-02-03T17:07:43.557Z,98924.56
2023-02-03T17:10:17.295Z,98916.03
2023-02-03T17:12:52.985Z,98916.22
2023-02-03T17:15:25.998Z,98915.81
2023-02-03T17:18:01.224Z,98915.56
2023-02-03T17:20:34.257Z,98892.44
2023-02-03T17:23:07.259Z,98885.84
2023-02-03T17:25:41.439Z,98904.88
2023-02-03T17:28:15.346Z,98922.72
2023-02-03T17:30:58.246Z,98915.03
2023-02-03T17:33:35.420Z,98909.59
2023-02-03T17:36:12.260Z,98914.06
2023-02-03T17:55:39.067Z,98937.63
2023-02-03T17:58:12.429Z,98929.50
2023-02-03T18:00:45.518Z,98931.03
2023-02-03T18:03:18.539Z,98923.00
2023-02-03T18:05:53.911Z,98912.81
2023-02-03T18:08:31.891Z,98921.03
2023-02-03T18:11:05.726Z,98931.41
2023-02-03T18:13:40.365Z,98937.44
2023-02-03T18:16:16.257Z,98931.41
2023-02-03T18:18:51.360Z,98932.97
2023-02-03T18:21:27.424Z,98939.03
2023-02-03T18:24:01.892Z,98937.53
2023-02-03T18:26:39.294Z,98929.75
2023-02-03T18:29:13.465Z,98935.81
2023-02-03T18:31:46.863Z,98944.28
2023-02-03T18:34:20.325Z,98935.00
2023-02-03T18:36:54.745Z,98942.13
2023-02-03T18:39:28.037Z,98943.88
2023-02-03T18:42:01.251Z,98945.38
2023-02-03T18:44:34.653Z,98945.38
2023-02-03T18:47:08.329Z,98945.03
2023-02-03T18:49:42.191Z,98943.78
2023-02-03T18:52:16.563Z,98947.72
2023-02-03T18:54:51.566Z,98960.00
2023-02-03T18:57:26.112Z,98970.06
2023-02-03T18:59:59.116Z,98971.66
2023-02-03T19:02:32.173Z,98970.63
2023-02-03T19:05:05.748Z,98962.81
2023-02-03T19:07:40.169Z,98966.41
2023-02-03T19:10:13.456Z,98967.34
2023-02-03T19:12:46.614Z,98964.97
2023-02-03T19:15:20.200Z,98967.53
2023-02-03T19:17:53.172Z,98964.19
2023-02-03T19:20:26.233Z,98958.75
2023-02-03T19:23:02.355Z,98969.38
2023-02-03T19:25:36.372Z,98977.84
2023-02-03T19:28:17.443Z,98987.69
2023-02-03T19:30:57.536Z,98989.94
2023-02-03T19:33:33.016Z,98990.44
2023-02-03T19:36:07.582Z,98996.41
2023-02-03T19:38:42.061Z,98996.00
2023-02-03T19:41:15.135Z,98994.88
2023-02-03T19:43:51.870Z,98991.38
2023-02-03T19:46:25.643Z,98988.38
2023-02-03T19:48:58.706Z,98973.03
2023-02-03T19:51:31.694Z,98974.91
2023-02-03T19:54:06.171Z,98977.84
2023-02-03T19:56:39.178Z,98982.75
2023-02-03T19:59:12.262Z,98999.78
2023-02-03T20:01:45.444Z,98987.88
2023-02-03T20:04:18.460Z,98978.75
2023-02-03T20:06:51.445Z,98974.34
2023-02-03T20:09:25.987Z,98980.66
2023-02-03T20:11:59.684Z,98984.63
2023-02-03T20:14:33.906Z,98979.63
2023-02-03T20:17:07.530Z,98968.22
2023-02-03T20:19:40.576Z,98967.47
2023-02-03T20:22:13.577Z,98964.66
2023-02-03T20:24:48.131Z,98963.69
2023-02-03T20:27:21.158Z,98974.72
2023-02-03T20:29:54.262Z,98965.19
2023-02-03T20:32:27.263Z,98967.81
2023-02-03T20:35:00.285Z,98955.50
2023-02-03T20:37:35.968Z,98963.69
2023-02-03T20:40:17.384Z,98968.94
2023-02-03T20:42:51.160Z,98986.22
2023-02-03T20:45:25.668Z,98982.59
2023-02-03T20:47:59.187Z,98980.16
2023-02-03T20:50:42.050Z,98998.75
2023-02-03T20:53:20.887Z,98996.94
2023-02-03T20:56:00.135Z,98988.56
2023-02-03T20:58:37.176Z,98994.69
2023-02-03T21:01:15.600Z,98991.84
2023-02-03T21:04:06.790Z,98984.97
2023-02-03T21:06:39.893Z,98984.97
2023-02-03T21:09:15.890Z,98983.75
2023-02-03T21:11:53.073Z,98992.31
2023-02-03T21:14:40.584Z,98982.91
2023-02-03T21:17:19.643Z,98985.09
2023-02-03T21:19:53.646Z,98995.22
2023-02-03T21:22:30.254Z,98998.47
2023-02-03T21:25:04.104Z,98998.66
2023-02-03T21:27:38.504Z,99008.06
2023-02-03T21:30:28.233Z,98997.22
2023-02-03T21:33:07.715Z,98984.56
2023-02-03T21:35:40.730Z,98990.09
2023-02-03T21:38:31.339Z,98993.22
2023-02-03T21:41:13.658Z,98988.22
2023-02-03T21:43:51.969Z,98976.75
2023-02-03T21:46:27.694Z,98980.50
2023-02-03T21:49:01.844Z,98974.63
2023-02-03T21:51:37.165Z,98982.72
2023-02-03T21:54:26.543Z,99001.91
2023-02-03T21:57:00.041Z,98995.97
2023-02-03T21:59:42.715Z,98982.78
2023-02-03T22:02:50.002Z,98983.22
2023-02-03T22:05:23.159Z,98985.63
2023-02-03T22:07:56.231Z,98984.72
2023-02-03T22:10:29.580Z,98981.34
2023-02-03T22:13:02.798Z,98989.72
2023-02-03T22:15:37.215Z,98990.59
2023-02-03T22:18:10.464Z,98998.56
2023-02-03T22:20:43.461Z,98993.84
2023-02-03T22:23:16.487Z,98991.97
2023-02-03T22:25:50.268Z,98998.56
2023-02-03T22:28:23.265Z,99005.97
2023-02-03T22:30:57.682Z,99000.00
2023-02-03T22:33:30.879Z,99009.28
2023-02-03T22:36:06.628Z,99015.59
2023-02-03T22:38:41.162Z,99019.94
2023-02-03T22:41:14.190Z,99033.41
2023-02-03T22:43:47.236Z,99043.38
2023-02-03T22:46:21.901Z,99037.47
2023-02-03T22:48:54.942Z,99032.59
2023-02-03T22:51:27.971Z,99030.66
2023-02-03T22:54:01.040Z,99032.66
2023-02-03T22:56:34.021Z,99039.25
2023-02-03T22:59:07.109Z,99040.75
2023-02-03T23:01:41.502Z,99032.00
2023-02-03T23:04:14.536Z,99044.59
2023-02-03T23:06:47.561Z,99044.06
2023-02-03T23:09:20.593Z,99045.56
2023-02-03T23:11:53.643Z,99039.44
2023-02-03T23:14:26.821Z,99038.56
2023-02-03T23:17:01.181Z,99047.94
2023-02-03T23:19:34.156Z,99056.81
2023-02-03T23:22:07.227Z,99052.78
2023-02-03T23:24:40.218Z,99055.56
2023-02-03T23:27:13.545Z,99052.84
2023-02-03T23:29:46.571Z,99050.66
2023-02-03T23:32:20.955Z,99043.81
2023-02-03T23:35:11.841Z,99042.19
2023-02-03T23:37:44.998Z,99047.44
2023-02-03T23:40:18.889Z,99042.84
2023-02-03T23:42:52.008Z,99044.38
2023-02-03T23:45:25.032Z,99047.16
2023-02-03T23:47:59.542Z,99049.44
2023-02-03T23:50:32.971Z,99058.47
2023-02-03T23:53:06.458Z,99040.03
2023-02-03T23:55:39.449Z,99024.25
2023-02-03T23:58:12.553Z,99053.28
